Používaním stránok prevádzkovaných PROFIPILOT, s.r.o. súhlasíte s používaním cookies, ktoré nám pomáhajú zabezpečiť lepšie služby.OK

Briefing

MAPA | METAR | TAF | METEO SITUÁCIA
Sliač
LZSL 291330Z 28009KT 230V340 9999 SCT060 28/14 Q1014
Bratislava
LZIB 291330Z 26012KT CAVOK 29/15 Q1013 NOSIG
Košice
LZKZ 291330Z 18005KT 150V210 9999 FEW035CB SCT040 25/19 Q1013 TEMPO TSRA
Lučenec
LZLU 141110Z AUTO 08009KT //// ////// 02/01 Q0994
Piešťany
LZPP 291330Z 25008KT 210V290 CAVOK 28/17 Q1013
Poprad
LZTT 291330Z 13008KT 9999 FEW030 22/16 Q1015 NOSIG
Žilina
LZZI 291330Z 26004KT 170V300 9999 -SHRA SCT030 FEW035CB 18/16 Q1014 RETS
MAPA | METAR | TAF | METEO SITUÁCIA

Predpoveď na dnes

Polooblačno až oblačno. Miestami, na západe len ojedinele prehánky alebo búrky, ojedinele aj intenzívne. Najvyššia denná teplota 26 až 30, na severe a miestami aj na východe okolo 24 st. Teplota na horách vo výške 1500 m okolo 16 st. Slabý, na juhozápade prevažne západný vietor do 5 m/s (20 km/h), pri búrkach prechodne zosilnie. Predpokladané množstvo zrážok: do 5 mm, miestami do 15 mm, pri búrkach ojedinele okolo 30 mm.

SHMÚ, OMPaV, MM, CS 29.7.2016 11:50 LSEČ

MAPA | METAR | TAF | METEO SITUÁCIA

TAF - Letisková predpoveď

29.07.2016 - 14:00 UTC

TAF LZSL 291400Z 2915/2924 26005KT 9999 SCT050
     TEMPO 2915/2918 -SHRA BKN030 FEW040CB
     PROB40 TEMPO 2915/2918 28015G25KT 3000 TSRA
     TEMPO 2921/2924 4000 BCFG SCT002=
 TAF LZPP 291400Z 2915/2924 25006KT CAVOK
     TEMPO 2915/2918 7000 -SHRA FEW033CB SCT045
     PROB30 TEMPO 2915/2918 20015KT 4500 TSRA SCT030CB BKN040=
 TAF LZZI 291400Z 2915/2924 24005KT 9999 FEW030 SCT040
     TEMPO 2915/2922 -SHRA SCT030 FEW040CB
     PROB40 TEMPO 2915/2921 25015G25KT 4000 TSRA BKN025 SCT028CB
     TEMPO 2921/2924 3000 BCFG SCT003 SCT030=
 

29.07.2016 - 11:00 UTC

TAF LZSL 291100Z 2912/2921 23005KT 9999 SCT045
     TEMPO 2912/2918 -SHRA BKN030 FEW040CB
     PROB40 TEMPO 2912/2918 26015G25KT 3000 TSRA=
 TAF LZPP 291100Z 2912/2921 23006KT 9999 SCT035
     TEMPO 2912/2918 -SHRA SCT028 FEW030CB
     PROB30 TEMPO 2912/2918 20015KT 4500 TSRA BKN025 SCT030CB=
 TAF LZZI 291100Z 2912/2921 24005KT 9999 FEW022 SCT030
     TEMPO 2912/2921 -SHRA SCT025 FEW030CB
     PROB40 TEMPO 2912/2921 25015G25KT 4000 TSRA BKN020 SCT025CB=
 

29.07.2016 - 11:00 UTC

TAF LZIB 291100Z 2912/3012 28008KT 9999 SCT043
     PROB40 TEMPO 2912/2917 25016KT -SHRA FEW040TCU BKN050
     BECMG 2918/2920 33005KT CAVOK
     BECMG 3008/3010 9999 FEW040=
 TAF LZKZ 291100Z 2912/3012 23005KT 9999 SCT030
     TEMPO 2912/2918 25015KT 5000 TSRA BKN020 SCT030CB
     BECMG 2918/2920 VRB02KT 3000 BR FEW002
     TEMPO 2920/3005 0600 FG BKN002
     BECMG 3006/3008 9999 SCT040=
 TAF LZTT 291100Z 2912/3012 VRB02KT 9999 SCT026
     TEMPO 2912/2920 07010KT -SHRA SCT014 SCT030CB
     PROB40 TEMPO 2912/2917 VRB15G25KT 6000 TSRA BKN012 SCT025CB
     PROB40 TEMPO 2918/2922 0800 BCFG SCT000 BKN002
     BECMG 2921/2923 27006KT 7000 FEW005 SCT070
     BECMG 3006/3008 9999 SCT040=
 

29.07.2016 - 11:00 UTC

TAF LZSL 291100Z 2912/2921 23005KT 9999 SCT045
     TEMPO 2912/2918 -SHRA BKN030 FEW040CB
     PROB40 TEMPO 2912/2918 26015G25KT 3000 TSRA=
 TAF LZPP 291100Z 2912/2921 23006KT 9999 SCT035
     TEMPO 2912/2918 -SHRA SCT028 FEW030CB
     PROB30 TEMPO 2912/2918 20015KT 4500 TSRA BKN025 SCT030CB=
 TAF LZZI 291100Z 2912/2921 24005KT 9999 FEW022 SCT030
     TEMPO 2912/2921 -SHRA SCT025 FEW030CB
     PROB40 TEMPO 2912/2921 25015G25KT 4000 TSRA BKN020 SCT025CB=
 

29.07.2016 - 08:00 UTC

TAF AMD LZZI 290915Z 2909/2918 24005KT 9999 FEW012 SCT030
     PROB40 2909/2910 BKN012
     TEMPO 2910/2918 -SHRA SCT025 FEW030CB
     PROB40 TEMPO 2910/2918 25015G25KT 4000 TSRA BKN025 SCT030CB=
 

29.07.2016 - 08:00 UTC

TAF LZSL 290800Z 2909/2918 23005KT 9999 FEW020 BKN090
     TEMPO 2910/2918 -SHRA BKN020 FEW030CB
     PROB40 TEMPO 2910/2918 26015G25KT 3000 TSRA=
 TAF LZPP 290800Z 2909/2918 24006KT 9999 FEW008 SCT030
     TEMPO 2910/2918 -SHRA SCT025 FEW030CB
     PROB30 TEMPO 2913/2918 20015KT 4500 TSRA BKN020 SCT030CB=
 TAF LZZI 290800Z 2909/2918 24005KT 9999 FEW010 SCT030
     TEMPO 2910/2918 -SHRA SCT025 FEW030CB
     PROB40 TEMPO 2910/2918 25015G25KT 4000 TSRA BKN025 SCT030CB=
 

29.07.2016 - 05:00 UTC

TAF AMD LZPP 290743Z 2907/2915 36003KT 9999 FEW006 BKN010
     BECMG 2907/2909 24008KT FEW010 SCT025
     TEMPO 2910/2915 -SHRA SCT025 FEW030CB
     PROB30 TEMPO 2913/2915 20015KT 4500 TSRA BKN020 SCT030CB=
 

29.07.2016 - 08:00 UTC

TAF LZSL 290800Z 2909/2918 23005KT 9999 FEW020 BKN090
     TEMPO 2910/2918 -SHRA BKN020 FEW030CB
     PROB40 TEMPO 2910/2918 26015G25KT 3000 TSRA=
 TAF LZPP 290800Z 2909/2918 24006KT 9999 FEW008 SCT030
     TEMPO 2910/2918 -SHRA SCT025 FEW030CB
     PROB30 TEMPO 2913/2918 20015KT 4500 TSRA BKN020 SCT030CB=
 TAF LZZI 290800Z 2909/2918 24005KT 9999 FEW010 SCT030
     TEMPO 2910/2918 -SHRA SCT025 FEW030CB
     PROB40 TEMPO 2910/2918 25015G25KT 4000 TSRA BKN025 SCT030CB=
 

29.07.2016 - 05:00 UTC

TAF LZSL 290500Z 2906/2915 VRB02KT 6000 SCT005 BKN007
     TEMPO 2906/2907 1300 BCFG BKN002
     BECMG 2908/2910 23006KT 9999 FEW020 BKN090
     TEMPO 2910/2915 26012KT 5000 SHRA BKN020 FEW030CB
     PROB40 TEMPO 2910/2915 26015G25KT 2500 TSRA=
 TAF LZPP 290500Z 2906/2915 36003KT 6000 BR SCT003
     TEMPO 2906/2907 1200 BCFG SCT002 BKN003
     BECMG 2907/2909 24008KT 9999 SCT025
     TEMPO 2910/2915 -SHRA SCT025 FEW030CB
     PROB30 TEMPO 2913/2915 20015KT 4500 TSRA BKN020 SCT030CB=
 TAF LZZI 290500Z 2906/2915 VRB02KT 7000 SCT005 BKN012
     TEMPO 2906/2907 4000 BCFG BKN004
     BECMG 2907/2909 21005KT 9999 SCT030
     TEMPO 2910/2915 25015G25KT 4000 TSRA BKN025 SCT030CB=
 

29.07.2016 - 05:00 UTC

TAF COR LZPP 290443Z 2906/2915 36003KT 6000 SCT003
     TEMPO 2906/2907 1200 BCFG SCT002 BKN003
     BECMG 2907/2909 24008KT 9999 SCT025
     TEMPO 2910/2915 -SHRA SCT025 FEW030CB
     PROB30 TEMPO 2913/2915 20015KT 4500 TSRA BKN020 SCT030CB=
 

29.07.2016 - 05:00 UTC

TAF LZIB 290500Z 2906/3006 33004KT CAVOK
     BECMG 2908/2910 29008KT 9999 SCT040
     TEMPO 2910/2917 25016KT -SHRA FEW040TCU BKN050
     BECMG 2918/2920 33005KT CAVOK=
 TAF LZKZ 290500Z 2906/3006 VRB02KT 3500 BR SCT002 BKN007
     TEMPO 2906/2907 1300 BCFG SCT001 BKN002
     PROB30 TEMPO 2907/2910 2800 TSRA BKN004 SCT030CB
     BECMG 2907/2909 21006KT SCT015 BKN060
     TEMPO 2910/2918 25015KT -TSRA BKN020 SCT030CB
     BECMG 2918/2920 VRB02KT 2500 BR FEW002
     TEMPO 2920/3005 0600 FG BKN002=
 TAF LZTT 290500Z 2906/3006 VRB02KT 9999 BKN026
     TEMPO 2908/2920 07010KT -SHRA BKN014 FEW030CB
     TEMPO 2909/2917 VRB15G25KT 6000 TSRA BKN012 SCT025CB
     PROB40 TEMPO 2918/2922 0800 BCFG SCT000 BKN002
     BECMG 2921/2923 27006KT 7000 FEW005 SCT070=
 

29.07.2016 - 05:00 UTC

TAF COR LZPP 290443Z 2906/2915 36003KT 6000 SCT003
     TEMPO 2906/2907 1200 BCFG SCT002 BKN003
     BECMG 2907/2909 24008KT 9999 SCT025
     TEMPO 2910/2915 -SHRA SCT025 FEW030CB
     PROB30 TEMPO 2913/2915 20015KT 4500 TSRA BKN020 SCT030CB=
 

29.07.2016 - 05:00 UTC

TAF LZSL 290500Z 2906/2915 VRB02KT 6000 SCT005 BKN007
     TEMPO 2906/2907 1300 BCFG BKN002
     BECMG 2908/2910 23006KT 9999 FEW020 BKN090
     TEMPO 2910/2915 26012KT 5000 SHRA BKN020 FEW030CB
     PROB40 TEMPO 2910/2915 26015G25KT 2500 TSRA=
 TAF LZPP 290500Z 2906/2915 36003KT 6000 BR SCT003
     TEMPO 2906/2907 1200 BCFG SCT002 BKN003
     BECMG 2907/2909 24008KT 9999 SCT025
     TEMPO 2910/2915 -SHRA SCT025 FEW030CB
     PROB30 TEMPO 2913/2915 20015KT 4500 TSRA BKN020 SCT030CB=
 TAF LZZI 290500Z 2906/2915 VRB02KT 7000 SCT005 BKN012
     TEMPO 2906/2907 4000 BCFG BKN004
     BECMG 2907/2909 21005KT 9999 SCT030
     TEMPO 2910/2915 25015G25KT 4000 TSRA BKN025 SCT030CB=
 

29.07.2016 - 02:00 UTC

TAF LZSL 290200Z 2903/2912 VRB02KT 5000 BR SCT002 BKN007
     TEMPO 2903/2907 1300 BCFG BKN002
     PROB40 TEMPO 2903/2906 0300 FG BKN001
     BECMG 2907/2909 28006KT 9999 FEW020 BKN090
     TEMPO 2909/2912 25012KT 4500 SHRA BKN020 FEW030CB=
 TAF LZZI 290200Z 2903/2912 VRB02KT 7000 SCT003 BKN009
     TEMPO 2903/2907 2500 BCFG BKN002
     PROB40 TEMPO 2903/2906 0600 FG BKN001
     BECMG 2907/2909 21005KT 9999 FEW020 BKN100
     TEMPO 2910/2912 26010KT -SHRA SCT025 FEW030CB=
 

29.07.2016 - 02:00 UTC

TAF LZSL 290200Z 2903/2912 VRB02KT 5000 BR SCT002 BKN007
     TEMPO 2903/2907 1300 BCFG BKN002
     PROB40 TEMPO 2903/2906 0300 FG BKN001
     BECMG 2907/2909 28006KT 9999 FEW020 BKN090
     TEMPO 2909/2912 25012KT 4500 SHRA BKN020 FEW030CB=
 TAF LZZI 290200Z 2903/2912 VRB02KT 7000 SCT003 BKN009
     TEMPO 2903/2907 2500 BCFG BKN002
     PROB40 TEMPO 2903/2906 0600 FG BKN001
     BECMG 2907/2909 21005KT 9999 FEW020 BKN100
     TEMPO 2910/2912 26010KT -SHRA SCT025 FEW030CB=
 
MAPA | METAR | TAF | METEO SITUÁCIA

METAR - Letisková meteo správa

Letisková meteorologická správa METAR

Meteorologické informácie z ďalších profesionálnych meteorologických staníc SHMÚ zobrazené v tvare zodpovedajúcom pravidlám kódovania správ METAR sú uvedené v položke „METSYN Informácie o správe METAR

29.07.2016 - 13:30 UTC

METAR LZIB 291330Z 26012KT CAVOK 29/15 Q1013 NOSIG=
 METAR LZKZ 291330Z 18005KT 150V210 9999 FEW035CB SCT040 25/19 Q1013
 TEMPO TSRA=
 METAR LZPP 291330Z 25008KT 210V290 CAVOK 28/17 Q1013=
 METAR LZSL 291330Z 28009KT 230V340 9999 SCT060 28/14 Q1014=
 METAR LZTT 291330Z 13008KT 9999 FEW030 22/16 Q1015 NOSIG=
 METAR LZZI 291330Z 26004KT 170V300 9999 -SHRA SCT030 FEW035CB 18/16
 Q1014 RETS=
 

29.07.2016 - 13:00 UTC

METAR LZIB 291300Z 28011KT 250V310 CAVOK 29/15 Q1013 NOSIG=
 METAR LZKZ 291300Z 20006KT 150V270 9999 FEW035CB SCT040 25/19 Q1013
 TEMPO TS=
 METAR LZPP 291300Z 25007KT 220V300 CAVOK 28/17 Q1013=
 METAR LZSL 291300Z 22009KT 9999 SCT055 28/16 Q1014=
 METAR LZTT 291300Z 15008KT 120V210 9999 FEW020 23/16 Q1015 NOSIG=
 METAR LZZI 291300Z 31011KT 9999 2200NW TSRA SCT026 FEW035CB 19/15
 Q1014=
 

29.07.2016 - 13:00 UTC

METAR LZMC 291300Z 27008KT 9999 FEW040CB BKN050 28/14
 Q1014=
 METAR LZPW 291300Z 08005KT 9999 SCT022 BKN040 BKN100
 24/18 Q1014=
 
načítavam...